Weather observations for the past three days for
Wayne, Wayne Municipal Airport
Imperial (Metric)
Date Time (cdt) Wind (mph) Vis. (mi.) Weather Sky Cond. Temperature (ºF) Relative Humidity Wind Chill (°F) Heat Index (°F) Pressure Precipitation (in)
Air Dwpt 6 hour altimeter (in) sea level (mb) 1 hr 3 hr 6 hr
Max. Min.
05 12:55 S 21 G 25 10.00 Partly Cloudy and Breezy SCT047 SCT070 SCT090 73.6 67.1 76.5 71.6 80% 29.92 0.0
05 12:35 SE 14 10.00 Thunderstorm Light Rain SCT050 SCT070 BKN110 73 67.6 83% 29.97 0.0
05 12:15 SW 7 1.00 Thunderstorm Haze VV007 73.9 66.7 78% 30.03 0.0
05 11:55 E 6 10.00 Thunderstorm in Vicinity CLR 75.2 66 73% 77 30.03 0.0
05 11:35 E 10 10.00 Thunderstorm SCT034 SCT044 SCT050 74.5 66 75% 30.02 0.0
05 11:15 NE 13 G 18 10.00 Thunderstorm Light Rain in Vicinity SCT034 SCT046 BKN075 72.7 65.1 77% 30.06 0.0
05 10:55 NE 13 G 18 10.00 Thunderstorm in Vicinity BKN075 BKN085 72 65.3 80% 30.06 0.0
05 10:35 N 15 10.00 Mostly Cloudy BKN075 72.7 64.8 76% 30.08 0.0
05 10:15 NE 15 G 18 10.00 Partly Cloudy SCT080 72.7 65.5 78% 30.04 0.0
05 09:55 NE 12 10.00 Mostly Cloudy BKN080 72.5 66.4 81% 30.04 0.0
05 09:35 NE 15 G 23 10.00 Mostly Cloudy BKN080 72.3 67.5 85% 30.04 0.0
05 09:15 NE 17 G 22 10.00 Thunderstorm in Vicinity CLR 72.7 69.3 89% 30.03 0.0
05 08:55 NE 10 10.00 Fair CLR 73.2 69.6 89% 30.01 0.0
05 08:35 NE 7 10.00 Fair CLR 73.4 69.8 89% 29.99 0.0
05 08:15 NE 10 10.00 Thunderstorm in Vicinity SCT009 SCT016 74.5 71.2 90% 30 0.0
05 07:55 NE 10 G 16 7.00 Thunderstorm BKN009 BKN070 BKN110 76.5 74.8 95% 77 30 0.0
05 07:35 NE 8 10.00 Thunderstorm Light Rain SCT011 SCT041 SCT070 75.4 73.6 94% 74 29.97 0.0
05 07:15 NE 3 10.00 Fair CLR 75.4 73.4 94% 74 29.97 0.0
05 06:55 NE 8 10.00 Fair CLR 76.1 72.9 77 73.6 90% 76 29.96 0.0
05 06:35 N 15 G 18 10.00 Partly Cloudy SCT016 74.3 72.5 94% 29.94 0.0
05 06:15 S 3 10.00 Fair CLR 74.8 72.3 92% 29.89 0.0
05 05:55 S 3 10.00 Fair CLR 75 72.9 93% 74 29.91 0.0
05 05:35 SW 3 10.00 Fair CLR 75 72.7 92% 74 29.91 0.0
05 05:15 S 6 10.00 Fair CLR 74.8 72.7 93% 29.89 0.0
05 04:55 Calm 10.00 Fair CLR 74.5 72.7 94% 29.9 0.0
05 04:35 S 3 10.00 Fair CLR 75.2 73 93% 74 29.88 0.0
05 04:15 Calm 10.00 Fair CLR 75.2 73.4 94% 74 29.9 0.0
05 03:55 Calm 10.00 Fair CLR 73.9 72.3 95% 29.9 0.0
05 03:35 Calm 10.00 Fair CLR 76.5 73.8 91% 77 29.9 0.0
05 03:15 S 5 10.00 Fair CLR 76.3 73.9 93% 76 29.9 0.0
05 02:55 S 3 10.00 Fair CLR 76.1 73.9 93% 76 29.91 0.0
05 02:35 Calm 10.00 Fair CLR 75.6 73.2 92% 75 29.91 0.0
05 02:15 Calm 10.00 Fair CLR 76.1 73.6 92% 76 29.92 0.0
05 01:55 Calm 10.00 Fair CLR 74.8 73 94% 29.93 0.0
05 01:35 Calm 10.00 Fair CLR 75.2 73.2 94% 74 29.93 0.0
05 01:15 Calm 10.00 Fair CLR 76.1 73.2 91% 76 29.93 0.0
05 00:55 Calm 10.00 Fair CLR 77 73.6 87.4 74.7 89% 78 29.93 0.0
05 00:35 Calm 10.00 Fair CLR 76.8 73.4 89% 78 29.93 0.0
05 00:15 Calm 10.00 Fair CLR 77.7 74.1 89% 80 29.93 0.0
04 23:55 Calm 10.00 Fair CLR 78.4 74.3 87% 81 29.93 0.0
04 23:35 Calm 10.00 Fair CLR 79.9 74.5 84% 84 29.93 0.0
04 23:15 Calm 10.00 Fair CLR 77 74.1 91% 78 29.92 0.0
04 22:55 Calm 10.00 Fair CLR 75.9 73.9 94% 75 29.92 0.0
04 22:35 Calm 10.00 Fair CLR 78.6 74.8 88% 82 29.93 0.0
04 22:15 Calm 10.00 Fair CLR 78.8 75.4 89% 82 29.92 0.0
04 21:55 Calm 10.00 Fair CLR 76.1 74.5 95% 76 29.92 0.0
04 21:35 E 3 10.00 Fair CLR 80.1 76.5 89% 86 29.91 0.0
04 21:15 Calm 10.00 Fair CLR 80.6 76.6 88% 87 29.91 0.0
04 20:55 Calm 10.00 Fair CLR 78.6 76.1 92% 82 29.91 0.0
04 20:35 E 5 10.00 Fair CLR 80.6 76.6 88% 87 29.9 0.0
04 20:15 E 5 10.00 Fair CLR 81.3 76.5 85% 88 29.89 0.0
04 19:55 E 5 10.00 Fair CLR 82.2 77.2 85% 91 29.89 0.0
04 19:35 E 5 10.00 Fair CLR 84.6 77.9 81% 96 29.89 0.0
04 19:15 E 3 10.00 Fair CLR 87.1 77.9 74% 100 29.89 0.0
04 18:55 SE 5 10.00 Fair CLR 88 77.4 92.7 88 71% 101 29.89 0.0
04 18:35 E 6 10.00 Fair CLR 89.1 77.4 68% 102 29.89 0.0
04 18:15 E 6 10.00 Fair CLR 89.6 78.6 70% 105 29.89 0.0
04 17:55 E 5 10.00 Fair CLR 88.9 78.6 72% 104 29.89 0.0
04 17:35 SE 7 10.00 Fair CLR 89.6 78.1 69% 104 29.89 0.0
04 17:15 E 5 10.00 Fair CLR 89.1 78.6 71% 104 29.89 0.0
04 16:55 E 3 10.00 Fair CLR 89.4 77.7 69% 103 29.89 0.0
04 16:35 SE 3 10.00 Fair CLR 91 77.5 65% 105 29.88 0.0
04 16:15 E 3 10.00 Fair CLR 91 77.2 64% 105 29.88 0.0
04 15:55 Calm 10.00 Fair CLR 91.9 78.3 64% 108 29.89 0.0
04 15:35 SE 3 10.00 Fair CLR 91.2 76.8 63% 105 29.89 0.0
04 15:15 SE 5 10.00 Fair CLR 91.6 77.5 64% 106 29.89 0.0
04 14:55 E 5 10.00 Fair CLR 91.2 77.4 64% 105 29.89 0.0
04 14:35 Calm 10.00 Fair CLR 91.8 76.8 62% 105 29.89 0.0
04 14:15 SE 5 10.00 Fair CLR 92.3 77.9 63% 108 29.89 0.0
04 13:55 NE 3 10.00 Fair CLR 91.9 77.5 63% 107 29.89 0.0
04 13:35 N 7 10.00 Fair CLR 91 76.6 63% 104 29.89 0.0
04 13:15 NE 5 10.00 Fair CLR 90.7 77.2 65% 104 29.89 0.0
04 12:55 NE 6 10.00 Fair CLR 90.3 78.3 90.3 67.5 68% 105 29.89 0.0
04 12:35 N 5 10.00 Fair CLR 89.8 77.9 68% 104 29.89 0.0
04 12:15 NE 7 10.00 Fair CLR 88.7 77.2 69% 101 29.9 0.0
04 11:55 NE 7 10.00 Fair CLR 87.8 77.4 71% 100 29.9 0.0
04 11:35 N 5 10.00 Fair CLR 87.4 78.1 74% 101 29.9 0.0
04 11:15 N 5 10.00 Fair CLR 86.2 76.6 73% 97 29.89 0.0
04 10:55 Calm 10.00 Fair CLR 84.4 75.6 75% 93 29.9 0.0
04 10:35 Calm 10.00 Fair CLR 83.3 74.3 74% 90 29.9 0.0
04 10:15 Calm 10.00 Fair CLR 82.4 74.3 77% 89 29.89 0.0
04 09:55 Calm 10.00 Fair CLR 80.8 73.6 79% 86 29.89 0.0
04 09:35 Calm 10.00 Fair CLR 79.2 73 82% 83 29.89 0.0
04 09:15 Calm 10.00 Fair CLR 77.7 71.8 82% 80 29.89 0.0
04 08:55 Calm 10.00 Fair CLR 76.3 71.2 84% 77 29.88 0.0
04 08:35 W 5 10.00 Fair CLR 73.6 69.4 87% 29.88 0.0
04 08:15 SW 6 10.00 Fair CLR 71.6 68.9 91% 29.88 0.0
04 07:55 SW 3 10.00 Fair CLR 70 68.2 94% 29.88 0.0
04 07:35 Calm 10.00 Fair CLR 68.4 66.7 95% 29.87 0.0
04 07:15 Calm 10.00 Fair CLR 68.2 66.2 93% 29.86 0.0
04 06:55 S 3 10.00 Fair CLR 67.5 66.2 73.9 67.5 96% 29.85 0.0
04 06:35 Calm 10.00 Fair CLR 68 66.4 95% 29.85 0.0
04 06:15 S 5 10.00 Fair CLR 68.2 66.6 95% 29.84 0.0
04 05:55 Calm 10.00 Fair CLR 68 66.4 95% 29.83 0.0
04 05:35 Calm 10.00 Fair CLR 68.9 67.3 95% 29.83 0.0
04 05:15 SW 5 10.00 Fair CLR 68.7 67.3 95% 29.83 0.0
04 04:55 S 3 10.00 Fair CLR 68.5 67.5 96% 29.83 0.0
04 04:35 Calm 10.00 Fair CLR 70.2 68.2 93% 29.82 0.0
04 04:15 S 3 10.00 Fair CLR 70 68.2 94% 29.82 0.0
04 03:55 Calm 10.00 Fair CLR 71.1 69.3 94% 29.81 0.0
04 03:35 S 3 10.00 Fair CLR 71.2 69.3 94% 29.81 0.0
04 03:15 SW 6 10.00 Fair CLR 71.4 69.4 94% 29.81 0.0
04 02:55 S 6 10.00 Fair CLR 72.7 70.2 92% 29.81 0.0
04 02:35 S 5 10.00 Fair CLR 72.3 70.2 93% 29.81 0.0
04 02:15 S 5 10.00 Fair CLR 72.3 70.2 93% 29.81 0.0
04 01:55 Calm 10.00 Fair CLR 73.8 70.9 91% 29.82 0.0
04 01:35 Calm 10.00 Fair CLR 73.2 70.9 92% 29.82 0.0
04 01:15 Calm 10.00 Fair CLR 73 71.1 94% 29.82 0.0
04 00:55 Calm 10.00 Fair CLR 73.4 71.2 87.8 73.4 93% 29.82 0.0
04 00:35 Calm 10.00 Fair CLR 75.4 72 89% 75 29.81 0.0
04 00:15 S 3 10.00 Fair CLR 76.3 72.7 89% 77 29.81 0.0
03 23:55 S 6 10.00 Fair CLR 76.3 72.9 89% 77 29.81 0.0
03 23:35 S 3 10.00 Fair CLR 76.3 73.4 91% 77 29.81 0.0
03 23:15 S 5 10.00 Fair CLR 77 73.8 90% 78 29.82 0.0
03 22:55 S 5 10.00 Fair CLR 78.4 74.5 88% 81 29.81 0.0
03 22:35 S 7 10.00 Fair CLR 79.7 74.8 85% 84 29.81 0.0
03 22:15 S 7 10.00 Fair CLR 80.1 75.2 85% 85 29.81 0.0
03 21:55 S 8 10.00 Fair CLR 80.1 75.6 86% 85 29.81 0.0
03 21:35 SE 5 10.00 Fair CLR 78.8 75.4 89% 82 29.81 0.0
03 21:15 Calm 7.00 Fair CLR 79 76.1 91% 83 29.81 0.0
03 20:55 Calm 10.00 Fair CLR 79 76.1 91% 83 29.8 0.0
03 20:35 Calm 10.00 Fair CLR 79.3 76.1 90% 84 29.79 0.0
03 20:15 Calm 10.00 Fair CLR 82.2 77 84% 91 29.79 0.0
03 19:55 Calm 10.00 Fair CLR 83.1 77.7 84% 93 29.79 0.0
03 19:35 Calm 10.00 Fair CLR 85.3 77.9 79% 97 29.79 0.0
03 19:15 Calm 10.00 Fair CLR 86.9 79 77% 101 29.78 0.0
03 18:55 SE 3 10.00 Fair CLR 88 77.9 90 87.4 72% 101 29.78 0.0
03 18:35 S 5 10.00 Fair CLR 88.2 77.7 71% 101 29.78 0.0
03 18:15 S 7 10.00 Fair CLR 88.9 76.5 67% 101 29.78 0.0
03 17:55 SW 6 10.00 Fair CLR 89.6 75.9 64% 101 29.78 0.0
03 17:35 SW 6 10.00 Fair CLR 89.6 75.2 63% 100 29.78 0.0
03 17:15 SW 6 10.00 Fair CLR 90 73.8 59% 99 29.77 0.0
03 16:55 SW 7 10.00 Fair CLR 89.6 73 58% 98 29.78 0.0
03 16:35 S 12 10.00 Fair CLR 89.6 73.2 59% 98 29.78 0.0
03 16:15 SW 9 10.00 Fair CLR 89.6 73 58% 98 29.78 0.0
03 15:55 S 10 10.00 Fair CLR 89.8 73.6 59% 99 29.78 0.0
03 15:35 S 10 10.00 Fair CLR 89.8 73.8 59% 99 29.78 0.0
03 15:15 SW 7 10.00 Fair CLR 89.6 73.4 59% 98 29.78 0.0
03 14:55 SW 9 10.00 Fair CLR 89.6 73 58% 98 29.79 0.0
03 14:35 SW 12 10.00 Fair CLR 89.6 72.9 58% 98 29.79 0.0
03 14:15 SW 13 10.00 Fair CLR 88.9 72 57% 96 29.79 0.0
03 13:55 SW 14 10.00 Thunderstorm in Vicinity CLR 88.9 72.3 58% 96 29.8 0.0
03 13:35 SW 12 G 18 10.00 Fair CLR 88.7 72.3 58% 96 29.8 0.0
03 13:15 S 13 G 18 10.00 Fair CLR 88.2 73 61% 96 29.8 0.0
03 12:55 S 15 G 22 10.00 Fair CLR 87.4 72 87.4 70.5 60% 94 29.8 0.0
03 12:35 S 14 10.00 Fair CLR 86.9 72.3 62% 94 29.79 0.0
03 12:15 S 14 10.00 Fair CLR 86 70.7 60% 91 29.79 0.0
03 11:55 S 14 10.00 Fair CLR 85.5 71.2 63% 91 29.8 0.0
03 11:35 S 13 10.00 Fair CLR 84.7 71.4 64% 90 29.8 0.0
03 11:15 SW 10 10.00 Fair CLR 84.2 70.5 64% 89 29.81 0.0
03 10:55 SW 13 10.00 Fair CLR 82.9 70.3 66% 87 29.8 0.0
03 10:35 S 13 10.00 Fair CLR 82 70.2 67% 86 29.8 0.0
03 10:15 SW 13 10.00 Fair CLR 81 70.2 70% 85 29.79 0.0
03 09:55 SW 10 10.00 Fair CLR 79.9 69.3 70% 83 29.8 0.0
03 09:35 SW 9 G 17 10.00 Fair CLR 79 69.1 72% 82 29.8 0.0
03 09:15 SW 13 G 20 10.00 Fair CLR 77.9 68.4 73% 80 29.8 0.0
03 08:55 SW 14 10.00 Fair CLR 77 68 74% 79 29.8 0.0
03 08:35 S 12 10.00 Fair CLR 75.2 67.8 78% 76 29.8 0.0
03 08:15 S 9 10.00 Fair CLR 73.4 67.6 82% 29.8 0.0
03 07:55 S 8 10.00 Fair CLR 72 67.1 85% 29.8 0.0
03 07:35 S 5 10.00 Fair CLR 71.4 66.6 85% 29.81 0.0
03 07:15 SE 3 10.00 Partly Cloudy SCT120 70.9 66.2 85% 29.79 0.0
03 06:55 Calm 10.00 Fair CLR 72.9 66.2 78.1 72.7 80% 29.78 0.0
03 06:35 S 6 10.00 Fair CLR 73.2 66.2 79% 29.78 0.0
03 06:15 S 7 10.00 Fair CLR 74.3 66 75% 29.77 0.0
03 05:55 S 6 10.00 Fair CLR 74.7 66.2 75% 29.77 0.0
03 05:35 S 6 10.00 Fair CLR 75 66.2 74% 76 29.78 0.0
03 05:15 S 7 10.00 Fair CLR 75.9 66 72% 77 29.78 0.0
03 04:55 S 8 10.00 Fair CLR 77 65.7 68% 79 29.78 0.0
03 04:35 S 12 10.00 Fair CLR 78.1 65.5 65% 80 29.78 0.0
03 04:15 S 13 10.00 Fair CLR 77.4 65.7 67% 79 29.78 0.0
03 03:55 S 10 10.00 Fair CLR 76.8 65.7 69% 79 29.78 0.0
03 03:35 S 10 10.00 Fair CLR 77 65.7 68% 79 29.79 0.0
03 03:15 S 10 10.00 Fair CLR 77 65.7 68% 79 29.79 0.0
03 02:55 S 8 10.00 Fair CLR 75.2 66.2 74% 77 29.79 0.0
03 02:35 S 8 10.00 Fair CLR 73.9 66.4 77% 29.8 0.0
03 02:15 S 6 10.00 Fair CLR 74.3 66.6 77% 29.8 0.0
03 01:55 S 7 10.00 Fair CLR 74.3 66.7 77% 29.81 0.0
03 01:35 S 6 10.00 Fair CLR 73.6 67.3 81% 29.81 0.0
03 01:15 S 7 10.00 Fair CLR 74.3 68 81% 29.81 0.0
03 00:55 S 8 10.00 Fair CLR 74.5 68.5 85.1 73.8 82% 29.81 0.0
03 00:35 S 8 10.00 Fair CLR 75.2 69.1 81% 76 29.81 0.0
03 00:15 S 8 10.00 Fair CLR 75.4 70 83% 76 29.81 0.0
02 23:55 S 8 10.00 Fair CLR 75.7 71.1 85% 76 29.81 0.0
02 23:35 S 7 10.00 Fair CLR 75.6 71.6 88% 75 29.81 0.0
02 23:15 S 6 10.00 Fair CLR 75.7 71.8 88% 76 29.81 0.0
02 22:55 S 5 10.00 Fair CLR 75.9 72.1 88% 76 29.81 0.0
02 22:35 S 5 10.00 Fair CLR 76.8 72 85% 78 29.81 0.0
02 22:15 Calm 10.00 Fair CLR 74.3 72.3 94% 29.81 0.0
02 21:55 Calm 10.00 Fair CLR 75 72.9 93% 74 29.82 0.0
02 21:35 Calm 10.00 Fair CLR 76.5 73.8 91% 77 29.81 0.0
02 21:15 Calm 10.00 Fair CLR 77.9 74.1 88% 80 29.81 0.0
02 20:55 Calm 10.00 Fair CLR 77.9 74.3 89% 80 29.81 0.0
02 20:35 S 3 10.00 Fair CLR 79.7 74.8 85% 84 29.8 0.0
02 20:15 S 5 10.00 Fair CLR 80.8 75.6 84% 87 29.8 0.0
02 19:55 S 5 10.00 Partly Cloudy SCT120 82.2 77 84% 91 29.8 0.0
02 19:35 S 3 10.00 Partly Cloudy SCT120 83.8 77.2 80% 94 29.8 0.0
02 19:15 S 3 10.00 Fair CLR 85.1 77.2 77% 96 29.81 0.0
02 18:55 S 6 10.00 Fair CLR 85.1 76.5 90 84.4 75% 95 29.81 0.0
02 18:35 S 7 10.00 Fair CLR 85.8 75.7 72% 95 29.81 0.0
02 18:15 S 9 10.00 Fair CLR 86.9 76.3 71% 98 29.81 0.0
02 17:55 S 12 10.00 Fair CLR 87.3 74.8 67% 97 29.81 0.0
02 17:35 S 9 10.00 Fair CLR 88 75.9 68% 99 29.81 0.0
02 17:15 S 10 10.00 Fair CLR 88.3 75.9 67% 99 29.81 0.0
02 16:55 S 10 10.00 Fair CLR 89.6 76.5 65% 102 29.81 0.0
02 16:35 S 7 10.00 Fair CLR 87.8 75.4 67% 98 29.82 0.0
02 16:15 S 10 10.00 Fair CLR 88.9 75.2 64% 99 29.83 0.0
02 15:55 S 10 10.00 Fair CLR 89.1 76.1 66% 101 29.83 0.0
02 15:35 S 8 10.00 Fair CLR 88.9 75.7 65% 100 29.84 0.0
02 15:15 S 12 10.00 Fair CLR 88.5 75 64% 99 29.84 0.0
02 14:55 S 9 10.00 Fair CLR 87.8 74.3 64% 97 29.84 0.0
02 14:35 S 9 10.00 Fair CLR 87.1 75.2 68% 97 29.84 0.0
02 14:15 S 8 10.00 Fair CLR 86.9 74.8 67% 96 29.84 0.0
02 13:55 S 9 10.00 Fair CLR 86.4 74.5 68% 95 29.85 0.0
02 13:35 S 8 10.00 Fair CLR 85.1 73.2 68% 92 29.86 0.0
02 13:15 S 8 10.00 Fair CLR 84.6 72.9 68% 91 29.86 0.0
Date Time (cdt) Wind (mph) Vis. (mi.) Weather Sky Cond. Air Dwpt Max. Min. Relative Humidity Wind Chill (°F) Heat Index (°F) altimeter (in) sea level (mb) 1 hr 3 hr 6 hr
6 hour
Temperature (ºF) Pressure Precipitation (in)